General Juan N Alvarez International Airport
MMAA : now visible

Airfield :











YOU CAN JOIN US ON...

 
LOGIN :

Register | Disclaimer

   EN    FR    IT 

 









Legend :    VFR   Marginal VFR   IFR   Intensive IFR   Very Intensive IFR
Visi :
Ceiling :
>= 8 km
>= 3000ft
5 to 8 km
1000 to 3000 ft
1500m to 5 km
500 to 1000 ft
800 to 1500m
200 to 500 ft
< 800m
< 200 ft
Symbols :   Thunderstorms  Fog  Heavy snow  Heavy precipitations  Wind > 20 kt






- Airport Elevation : 16 ft
- IATA code : ACA


MMAA - General Juan N Alvarez International

CURRENT METAR :
  • 091444Z 33005KT 8SM BKN090 BKN300 27/23 A2988 RMK SLP111 52003 975 8/078 HZY ISOL CU

EXPIRED METARs :
  • 091344Z 32003KT 8SM BKN090 BKN300 27/23 A2988 RMK 8/078 HZY
  • 091244Z 36002KT 8SM BKN090 BKN300 26/23 A2987 RMK 8/078 HZY

TAF TAF MMAA
Valid from the 09 at 12:00 until the 10 at 18:00 UTC


090957Z 0912/1018 26005KT 6SM HZ SCT020 SCT070 BKN300 TX31/0919Z TN25/0912Z
FM091800 24010KT 6SM HZ SCT020 BKN100 BKN300
TEMPO 0923/1003 6SM -TSRA BKN020CB
FM100600 24005KT 6SM HZ SCT020 BKN300
FM101800 23010KT 6SM HZ SCT020 BKN300
MMFR FIR / North America



MET'MAP, your aeronautical weather chart ! - Copyright ORBIFLY December 2007 - Disclaimer

ORBIFLY MET'MAP TEAM :

Programming & Development : Alexandra Zaïnal
Concept & original design : Baudouin d'Aumeries
Assistance for programming : Marc-Olivier Méhu
Technical & hardware support : Manuel Goepfert

Contact : metmap@orbifly.com




SOURCES & CREDITS :

   NOAA       Earth
Advisory